Time;durP1;ratioP1;P1;durP2;ratioP2;P2;SDS_P1;SDS_P2;PMS_P1;PMS_P2;Temp;Humidity;BMP_temperature;BMP_pressure;BME280_temperature;BME280_humidity;BME280_pressure;Samples;Min_cycle;Max_cycle;Signal;HPM_P1;HPM_P2
2023/10/31 00:02:17;;;;;;;20.40;12.10;;;;;;;13.72;65.45;99524.06;105674;1257;72870;-74
2023/10/31 00:04:45;;;;;;;18.50;11.80;;;;;;;13.71;65.37;99521.70;105756;1256;62194;-73
2023/10/31 00:07:12;;;;;;;18.10;11.60;;;;;;;13.69;65.47;99519.71;105569;1260;62336;-74
2023/10/31 00:09:39;;;;;;;22.50;10.80;;;;;;;13.66;65.46;99515.66;105616;1261;73879;-74
2023/10/31 00:12:07;;;;;;;16.50;11.50;;;;;;;13.63;65.36;99519.33;105763;1255;70726;-74
2023/10/31 00:14:35;;;;;;;19.00;12.00;;;;;;;13.59;65.70;99519.26;105656;1257;72710;-74
2023/10/31 00:17:02;;;;;;;20.70;13.20;;;;;;;13.54;65.67;99514.25;105572;1256;60552;-76
2023/10/31 00:19:30;;;;;;;21.10;11.50;;;;;;;13.50;65.76;99510.16;105516;1254;60315;-71
2023/10/31 00:21:57;;;;;;;18.70;11.50;;;;;;;13.47;65.78;99509.92;105707;1259;73860;-75
2023/10/31 00:24:25;;;;;;;24.00;12.30;;;;;;;13.43;65.96;99507.77;105625;1254;70238;-75
2023/10/31 00:26:53;;;;;;;17.60;12.00;;;;;;;13.39;66.09;99506.83;105745;1257;72723;-77
2023/10/31 00:29:20;;;;;;;19.00;12.90;;;;;;;13.35;66.12;99506.75;105612;1260;60460;-75
2023/10/31 00:31:48;;;;;;;20.30;11.90;;;;;;;13.31;66.33;99501.73;105741;1259;60470;-75
2023/10/31 00:34:15;;;;;;;20.40;11.40;;;;;;;13.26;66.47;99493.26;105535;1256;72673;-74
2023/10/31 00:36:43;;;;;;;21.70;13.90;;;;;;;13.22;66.47;99491.29;105603;1261;71059;-77
2023/10/31 00:39:10;;;;;;;18.60;11.90;;;;;;;13.18;66.31;99490.60;105604;1257;72670;-76
2023/10/31 00:41:39;;;;;;;19.20;11.60;;;;;;;13.17;66.58;99486.36;105853;1258;60670;-75
2023/10/31 00:44:06;;;;;;;19.10;12.20;;;;;;;13.15;66.49;99482.36;105708;1254;60472;-76
2023/10/31 00:46:34;;;;;;;18.30;12.10;;;;;;;13.13;66.62;99487.60;105701;1256;72581;-76
2023/10/31 00:49:01;;;;;;;20.80;11.80;;;;;;;13.10;66.67;99478.54;105735;1259;69281;-77
2023/10/31 00:51:29;;;;;;;20.50;12.10;;;;;;;13.08;66.62;99474.21;105982;1256;72467;-75
2023/10/31 00:53:56;;;;;;;22.40;12.80;;;;;;;13.06;66.70;99480.77;107616;1254;60514;-78
2023/10/31 00:56:24;;;;;;;23.00;13.00;;;;;;;13.05;66.82;99480.23;105881;1255;60339;-77
2023/10/31 00:58:51;;;;;;;22.60;12.70;;;;;;;13.04;66.82;99485.88;105725;1255;72567;-75
2023/10/31 01:01:18;;;;;;;24.70;13.50;;;;;;;13.02;66.77;99489.46;105689;1257;70614;-72
2023/10/31 01:03:46;;;;;;;19.00;12.40;;;;;;;13.01;66.90;99489.86;105851;1254;70708;-71
2023/10/31 01:06:13;;;;;;;24.10;13.20;;;;;;;12.98;67.08;99489.23;105863;1257;62263;-72
2023/10/31 01:08:41;;;;;;;21.10;11.90;;;;;;;13.04;66.95;99482.63;105740;1255;60479;-74
2023/10/31 01:11:09;;;;;;;17.40;11.80;;;;;;;13.10;66.84;99486.90;105518;1255;72626;-74
2023/10/31 01:13:37;;;;;;;17.70;12.20;;;;;;;13.09;66.68;99482.55;105789;1254;69931;-74
2023/10/31 01:16:05;;;;;;;20.90;12.40;;;;;;;13.07;66.73;99482.95;105834;1259;72730;-75
2023/10/31 01:18:32;;;;;;;22.90;13.60;;;;;;;13.05;66.69;99486.90;105878;1255;60657;-74
2023/10/31 01:21:00;;;;;;;22.70;12.60;;;;;;;13.03;66.67;99486.11;105638;1262;60445;-74
2023/10/31 01:23:27;;;;;;;20.80;11.90;;;;;;;13.00;66.85;99484.70;105601;1260;73775;-76
2023/10/31 01:25:55;;;;;;;20.10;13.50;;;;;;;12.97;66.82;99492.87;105648;1259;69074;-73
2023/10/31 01:28:22;;;;;;;20.90;12.20;;;;;;;12.93;67.08;99502.25;105768;1258;71232;-76
2023/10/31 01:30:49;;;;;;;20.30;12.50;;;;;;;12.88;67.23;99489.09;105773;1259;60402;-74
2023/10/31 01:33:17;;;;;;;19.50;13.70;;;;;;;12.81;67.51;99492.20;105711;1259;60610;-76
2023/10/31 01:35:45;;;;;;;22.70;12.90;;;;;;;12.75;67.62;99488.48;105620;1259;72449;-74
2023/10/31 01:38:12;;;;;;;24.50;13.90;;;;;;;12.71;67.56;99488.89;105524;1260;68876;-74
2023/10/31 01:40:40;;;;;;;21.60;13.20;;;;;;;12.68;67.65;99487.59;105671;1259;72755;-75
2023/10/31 01:43:07;;;;;;;20.40;11.50;;;;;;;12.67;67.71;99489.67;105672;1257;60449;-72
2023/10/31 01:45:35;;;;;;;25.50;13.00;;;;;;;12.73;67.66;99488.05;105635;1254;60603;-75
2023/10/31 01:48:03;;;;;;;23.30;13.00;;;;;;;12.81;67.54;99494.16;105698;1256;73978;-75
2023/10/31 01:50:32;;;;;;;24.40;14.30;;;;;;;12.80;67.34;99495.52;105695;1262;70350;-74
2023/10/31 01:53:00;;;;;;;20.90;13.60;;;;;;;12.78;67.47;99489.38;105854;1257;70393;-74
2023/10/31 01:55:29;;;;;;;24.30;13.90;;;;;;;12.76;67.61;99487.10;105699;1259;60469;-76
2023/10/31 01:57:56;;;;;;;24.10;14.00;;;;;;;12.73;67.58;99493.05;105690;1259;60743;-75
2023/10/31 02:00:24;;;;;;;21.70;13.60;;;;;;;12.69;67.69;99490.34;105610;1262;73813;-74
2023/10/31 02:02:52;;;;;;;26.40;15.10;;;;;;;12.65;67.75;99488.83;105594;1261;70449;-75
2023/10/31 02:05:19;;;;;;;20.40;14.60;;;;;;;12.61;67.93;99484.55;105759;1260;71533;-73
2023/10/31 02:07:48;;;;;;;24.60;13.90;;;;;;;12.57;68.07;99492.70;105699;1262;60520;-74
2023/10/31 02:10:16;;;;;;;23.60;13.90;;;;;;;12.52;68.18;99499.33;105733;1257;60341;-76
2023/10/31 02:12:43;;;;;;;20.70;13.50;;;;;;;12.49;68.12;99494.17;105708;1257;74060;-76
2023/10/31 02:15:11;;;;;;;28.60;14.60;;;;;;;12.47;68.17;99496.96;105609;1257;70271;-75
2023/10/31 02:17:39;;;;;;;26.30;14.20;;;;;;;12.44;68.34;99496.73;105806;1256;71677;-74
2023/10/31 02:20:07;;;;;;;21.90;12.50;;;;;;;12.52;68.27;99495.44;105715;1257;61739;-74
2023/10/31 02:22:34;;;;;;;26.80;13.90;;;;;;;12.58;68.13;99490.06;105710;1259;61214;-73
2023/10/31 02:25:03;;;;;;;20.50;13.60;;;;;;;12.56;68.15;99492.75;105654;1257;72081;-73
2023/10/31 02:27:31;;;;;;;19.90;13.20;;;;;;;12.54;68.22;99497.80;105633;1262;68883;-73
2023/10/31 02:29:58;;;;;;;20.70;13.70;;;;;;;12.52;68.24;99499.02;105648;1257;72747;-73
2023/10/31 02:32:26;;;;;;;24.10;13.90;;;;;;;12.49;68.28;99496.55;105593;1257;60553;-73
2023/10/31 02:34:54;;;;;;;21.00;13.50;;;;;;;12.45;68.41;99490.80;105709;1257;60523;-76
2023/10/31 02:37:22;;;;;;;22.90;14.60;;;;;;;12.39;68.51;99491.23;105781;1259;73844;-76
2023/10/31 02:39:49;;;;;;;23.10;14.70;;;;;;;12.32;68.75;99487.48;105722;1256;70646;-76
2023/10/31 02:42:16;;;;;;;20.30;14.60;;;;;;;12.29;68.81;99487.65;105778;1257;71467;-74
2023/10/31 02:44:44;;;;;;;24.80;14.90;;;;;;;12.24;69.13;99488.09;105577;1261;61009;-76
2023/10/31 02:47:11;;;;;;;23.70;13.90;;;;;;;12.22;69.31;99484.00;105576;1254;60513;-75
2023/10/31 02:49:39;;;;;;;25.90;15.20;;;;;;;12.28;69.31;99484.11;105625;1257;73810;-75
2023/10/31 02:52:06;;;;;;;24.50;15.00;;;;;;;12.32;69.29;99484.10;105670;1256;68623;-75
2023/10/31 02:54:34;;;;;;;23.20;14.60;;;;;;;12.28;69.35;99482.80;105710;1259;71535;-73
2023/10/31 02:57:01;;;;;;;26.00;14.30;;;;;;;12.25;69.44;99481.25;105706;1257;60422;-73
2023/10/31 02:59:29;;;;;;;25.90;15.40;;;;;;;12.22;69.35;99481.42;105672;1259;60334;-74
2023/10/31 03:01:56;;;;;;;24.30;15.60;;;;;;;12.20;69.56;99481.35;105626;1257;74665;-73
2023/10/31 03:04:24;;;;;;;26.90;16.00;;;;;;;12.16;69.46;99483.75;105764;1257;69003;-77
2023/10/31 03:06:51;;;;;;;26.70;15.40;;;;;;;12.12;69.60;99481.36;105709;1259;71448;-76
2023/10/31 03:09:19;;;;;;;24.40;15.10;;;;;;;12.09;69.72;99480.95;105558;1261;60477;-73
2023/10/31 03:11:46;;;;;;;27.10;14.80;;;;;;;12.04;69.74;99485.44;105622;1260;60508;-74
2023/10/31 03:14:14;;;;;;;25.10;15.40;;;;;;;12.01;69.98;99480.83;105543;1257;72566;-73
2023/10/31 03:16:41;;;;;;;25.00;13.70;;;;;;;12.07;69.92;99480.32;105730;1259;68981;-72
2023/10/31 03:19:09;;;;;;;25.60;14.80;;;;;;;12.05;69.89;99479.05;105807;1259;71722;-72
2023/10/31 03:21:36;;;;;;;24.30;14.20;;;;;;;11.98;69.93;99479.83;105695;1259;60553;-72
2023/10/31 03:24:04;;;;;;;23.10;15.20;;;;;;;11.93;69.96;99477.55;105621;1255;60486;-74
2023/10/31 03:26:32;;;;;;;27.00;15.50;;;;;;;11.89;70.08;99474.39;105652;1259;73925;-73
2023/10/31 03:28:59;;;;;;;22.50;14.50;;;;;;;11.84;70.22;99481.77;105633;1254;70924;-73
2023/10/31 03:31:26;;;;;;;24.30;15.10;;;;;;;11.79;70.33;99486.40;105689;1257;71370;-74
2023/10/31 03:33:54;;;;;;;24.00;16.40;;;;;;;11.74;70.41;99483.80;105634;1260;60399;-75
2023/10/31 03:36:21;;;;;;;25.20;14.20;;;;;;;11.71;70.61;99482.39;105690;1254;60421;-74
2023/10/31 03:38:49;;;;;;;24.30;14.40;;;;;;;11.77;70.43;99481.79;105732;1259;73885;-73
2023/10/31 03:41:17;;;;;;;28.90;15.60;;;;;;;11.81;70.29;99482.17;105609;1259;69281;-74
2023/10/31 03:43:45;;;;;;;20.10;13.90;;;;;;;11.77;70.33;99483.52;105673;1257;72707;-73
2023/10/31 03:46:12;;;;;;;25.00;15.80;;;;;;;11.73;70.49;99485.45;105785;1257;60455;-75
2023/10/31 03:48:40;;;;;;;23.10;14.70;;;;;;;11.70;70.58;99487.45;105700;1256;60435;-75
2023/10/31 03:51:07;;;;;;;23.70;14.80;;;;;;;11.66;70.54;99487.77;105585;1262;74260;-73
2023/10/31 03:53:35;;;;;;;25.00;14.90;;;;;;;11.63;70.72;99493.98;105748;1254;70358;-74
2023/10/31 03:56:02;;;;;;;20.10;14.60;;;;;;;11.59;70.70;99494.90;105632;1257;71397;-76
2023/10/31 03:58:30;;;;;;;23.50;12.90;;;;;;;11.56;70.81;99492.20;105618;1256;60746;-74
2023/10/31 04:00:58;;;;;;;28.70;19.60;;;;;;;11.64;70.75;99488.71;105647;1259;60335;-72
2023/10/31 04:03:26;;;;;;;24.40;14.80;;;;;;;11.69;70.43;99487.23;105694;1259;72974;-75
2023/10/31 04:05:54;;;;;;;23.20;15.00;;;;;;;11.66;70.50;99491.84;105636;1260;68868;-74
2023/10/31 04:08:21;;;;;;;23.90;15.70;;;;;;;11.62;70.61;99489.65;105517;1256;72768;-75
2023/10/31 04:10:49;;;;;;;27.60;15.30;;;;;;;11.58;70.69;99484.90;105615;1255;60448;-72
2023/10/31 04:13:16;;;;;;;21.60;14.40;;;;;;;11.54;70.63;99484.11;105695;1255;60424;-74
2023/10/31 04:15:44;;;;;;;22.70;14.60;;;;;;;11.50;70.86;99475.23;105686;1254;74279;-76
2023/10/31 04:18:11;;;;;;;23.70;14.70;;;;;;;11.47;70.85;99470.68;105677;1257;70417;-76
2023/10/31 04:20:39;;;;;;;25.20;14.00;;;;;;;11.45;71.02;99473.00;105687;1254;71391;-73
2023/10/31 04:23:06;;;;;;;21.60;14.40;;;;;;;11.53;70.67;99466.89;105576;1260;61486;-74
2023/10/31 04:25:34;;;;;;;25.40;14.00;;;;;;;11.55;70.61;99468.04;105657;1259;60518;-74
2023/10/31 04:28:01;;;;;;;26.20;15.00;;;;;;;11.53;70.53;99469.07;105631;1255;72519;-78
2023/10/31 04:30:29;;;;;;;24.70;14.80;;;;;;;11.51;70.69;99470.21;105750;1259;68897;-75
2023/10/31 04:32:56;;;;;;;22.80;14.40;;;;;;;11.49;70.66;99469.90;105782;1259;71895;-74
2023/10/31 04:35:23;;;;;;;28.90;15.40;;;;;;;11.46;70.59;99469.61;105685;1254;60542;-74
2023/10/31 04:37:51;;;;;;;22.10;14.50;;;;;;;11.45;70.57;99473.52;105673;1259;60604;-73
2023/10/31 04:40:18;;;;;;;20.10;12.60;;;;;;;11.46;70.54;99481.55;105495;1259;189953;-74
2023/10/31 04:43:37;;;;;;;23.60;15.60;;;;;;;11.62;70.17;99483.61;102924;1292;600372;-74
2023/10/31 04:46:04;;;;;;;19.70;14.90;;;;;;;11.63;69.76;99487.23;105239;1264;59350;-74
2023/10/31 04:48:32;;;;;;;22.60;14.40;;;;;;;11.61;69.91;99485.61;105161;1263;60036;-74
2023/10/31 04:50:59;;;;;;;23.40;14.60;;;;;;;11.60;69.79;99485.71;105249;1262;70791;-74
2023/10/31 04:53:26;;;;;;;23.30;14.90;;;;;;;11.58;69.61;99486.46;105348;1263;70561;-75
2023/10/31 04:55:54;;;;;;;22.10;14.60;;;;;;;11.57;69.62;99487.00;106496;1263;72671;-76
2023/10/31 04:58:21;;;;;;;25.70;15.20;;;;;;;11.56;69.57;99493.52;105699;1265;192103;-76
2023/10/31 05:00:49;;;;;;;23.50;14.10;;;;;;;11.55;69.64;99493.91;105526;1260;60000;-76
2023/10/31 05:03:16;;;;;;;21.50;13.10;;;;;;;11.56;69.56;99497.20;105398;1259;72482;-77
2023/10/31 05:05:45;;;;;;;23.30;13.30;;;;;;;11.66;69.05;99498.33;105418;1260;69275;-76
2023/10/31 05:08:12;;;;;;;25.40;14.20;;;;;;;11.72;68.80;99487.93;105244;1265;71522;-78
2023/10/31 05:10:40;;;;;;;19.30;13.30;;;;;;;11.72;68.92;99487.04;105193;1263;59736;-77
2023/10/31 05:13:07;;;;;;;23.20;15.00;;;;;;;11.72;68.69;99485.06;105415;1265;59614;-75
2023/10/31 05:15:35;;;;;;;21.30;13.70;;;;;;;11.71;68.59;99483.21;105464;1265;73079;-78
2023/10/31 05:18:02;;;;;;;22.90;14.50;;;;;;;11.69;68.73;99484.54;105991;1253;70013;-77
2023/10/31 05:20:30;;;;;;;20.80;14.30;;;;;;;11.69;68.68;99485.77;106057;1253;70528;-78
2023/10/31 05:22:57;;;;;;;23.30;13.70;;;;;;;11.69;68.61;99489.93;106749;1253;60224;-79
2023/10/31 05:25:25;;;;;;;24.00;13.90;;;;;;;11.67;68.68;99491.30;106680;1253;59743;-75
2023/10/31 05:27:52;;;;;;;21.30;14.60;;;;;;;11.68;68.76;99494.71;105888;1253;73235;-74
2023/10/31 05:30:19;;;;;;;24.00;13.90;;;;;;;11.69;68.54;99495.91;106001;1251;70376;-76
2023/10/31 05:32:47;;;;;;;22.30;13.50;;;;;;;11.78;68.55;99498.71;105928;1252;72581;-76
2023/10/31 05:35:14;;;;;;;23.00;13.50;;;;;;;11.83;68.32;99501.14;106068;1254;59714;-75
2023/10/31 05:37:42;;;;;;;25.90;14.80;;;;;;;11.83;68.36;99504.92;106010;1254;60027;-75
2023/10/31 05:40:10;;;;;;;21.40;13.40;;;;;;;11.84;68.31;99508.38;105906;1252;74023;-75
2023/10/31 05:42:38;;;;;;;22.30;14.40;;;;;;;11.84;68.09;99510.77;106128;1258;72623;-79
2023/10/31 05:45:06;;;;;;;22.80;14.40;;;;;;;11.87;68.12;99511.92;106137;1260;72730;-78
2023/10/31 05:47:34;;;;;;;21.30;14.00;;;;;;;11.88;68.11;99513.49;105861;1255;60131;-80
2023/10/31 05:50:01;;;;;;;26.90;14.70;;;;;;;11.90;68.00;99512.40;106016;1253;59598;-83
2023/10/31 05:52:29;;;;;;;22.90;13.50;;;;;;;11.91;68.00;99507.86;105966;1253;73396;-78
2023/10/31 05:54:57;;;;;;;20.90;13.40;;;;;;;11.92;68.10;99505.92;105864;1259;70853;-76
2023/10/31 05:57:24;;;;;;;25.10;15.00;;;;;;;11.94;67.90;99504.72;105930;1253;72732;-76
2023/10/31 05:59:52;;;;;;;21.60;14.20;;;;;;;11.95;67.87;99507.52;105929;1258;59980;-75
2023/10/31 06:02:20;;;;;;;30.00;15.10;;;;;;;11.97;67.84;99501.31;105742;1253;60096;-76
2023/10/31 06:04:47;;;;;;;27.30;14.50;;;;;;;11.98;67.78;99502.92;106178;1253;71737;-78
2023/10/31 06:07:15;;;;;;;21.50;14.00;;;;;;;11.99;67.80;99502.95;106086;1253;70308;-80
2023/10/31 06:09:42;;;;;;;21.10;13.40;;;;;;;12.03;67.97;99496.86;105993;1255;72483;-77
2023/10/31 06:12:09;;;;;;;28.80;14.20;;;;;;;12.16;67.51;99500.92;105898;1252;61221;-75
2023/10/31 06:14:37;;;;;;;26.70;15.30;;;;;;;12.26;67.24;99502.98;105939;1253;59522;-79
2023/10/31 06:17:04;;;;;;;28.90;16.30;;;;;;;12.27;67.19;99500.75;105706;1256;73290;-77
2023/10/31 06:19:36;;;;;;;25.20;16.00;;;;;;;12.27;67.18;99501.93;106018;1259;68759;-78
2023/10/31 06:22:04;;;;;;;26.40;15.50;;;;;;;12.28;67.40;99498.05;105899;1256;72453;-76
2023/10/31 06:24:31;;;;;;;25.50;15.40;;;;;;;12.30;67.28;99496.52;105765;1253;59748;-76
2023/10/31 06:26:59;;;;;;;25.50;15.50;;;;;;;12.31;67.35;99497.73;105984;1254;59764;-77
2023/10/31 06:29:26;;;;;;;23.40;15.80;;;;;;;12.32;67.21;99501.14;105902;1253;71864;-79
2023/10/31 06:32:14;;;;;;;23.90;15.70;;;;;;;12.33;67.27;99501.23;105676;1253;70965;-78
2023/10/31 06:34:41;;;;;;;26.90;16.80;;;;;;;12.33;67.28;99498.73;105788;1253;72874;-78
2023/10/31 06:37:09;;;;;;;28.60;16.90;;;;;;;12.33;67.41;99502.67;105988;1256;59631;-80
2023/10/31 06:39:36;;;;;;;26.50;18.30;;;;;;;12.33;67.50;99501.14;106283;1253;60276;-77
2023/10/31 06:42:04;;;;;;;26.60;18.00;;;;;;;12.32;67.73;99498.05;105986;1253;72702;-77
2023/10/31 06:44:32;;;;;;;31.20;19.70;;;;;;;12.32;67.79;99496.52;106269;1253;70142;-80
2023/10/31 06:46:59;;;;;;;25.40;17.30;;;;;;;12.33;67.76;99496.11;106093;1254;71511;-80
2023/10/31 06:49:27;;;;;;;25.70;17.00;;;;;;;12.37;67.78;99494.76;107228;1253;59802;-80
2023/10/31 06:51:54;;;;;;;28.10;15.80;;;;;;;12.48;67.65;99483.29;106500;1256;61550;-80
2023/10/31 06:54:22;;;;;;;25.20;16.20;;;;;;;12.58;67.21;99483.76;105766;1253;72875;-80
2023/10/31 06:56:49;;;;;;;26.30;17.20;;;;;;;12.62;67.09;99476.73;105777;1260;69564;-79
2023/10/31 06:59:17;;;;;;;28.20;17.10;;;;;;;12.68;66.72;99481.55;105635;1261;72706;-79
2023/10/31 07:01:46;;;;;;;26.30;17.50;;;;;;;12.72;66.57;99490.23;106098;1253;59851;-79
2023/10/31 07:04:14;;;;;;;24.30;14.90;;;;;;;12.77;66.42;99487.68;107106;1254;59622;-78
2023/10/31 07:06:41;;;;;;;27.20;16.20;;;;;;;12.84;66.42;99480.91;107010;1260;72128;-81
2023/10/31 07:09:09;;;;;;;27.80;16.80;;;;;;;12.91;66.25;99481.64;106427;1253;72132;-80
2023/10/31 07:11:37;;;;;;;24.90;16.20;;;;;;;12.98;66.01;99486.02;106166;1259;71903;-77
2023/10/31 07:14:04;;;;;;;24.80;15.50;;;;;;;13.04;65.78;99485.34;106696;1260;59639;-75
2023/10/31 07:16:32;;;;;;;26.90;15.30;;;;;;;13.09;65.75;99482.42;105992;1260;59974;-80
2023/10/31 07:19:00;;;;;;;25.60;14.90;;;;;;;13.15;65.53;99476.30;105903;1254;71473;-77
2023/10/31 07:21:27;;;;;;;17.50;12.20;;;;;;;13.22;65.04;99470.61;105921;1258;71285;-77
2023/10/31 07:23:55;;;;;;;21.40;13.50;;;;;;;13.29;64.62;99470.67;106264;1253;71231;-76
2023/10/31 07:26:23;;;;;;;23.50;12.80;;;;;;;13.33;64.35;99470.98;105943;1258;59733;-79
2023/10/31 07:28:51;;;;;;;26.30;14.30;;;;;;;13.37;64.26;99468.55;105960;1259;59972;-77
2023/10/31 07:31:18;;;;;;;22.70;14.10;;;;;;;13.41;64.35;99473.66;105912;1258;73148;-80
2023/10/31 07:33:45;;;;;;;19.40;12.50;;;;;;;13.44;64.40;99466.88;105947;1258;70357;-79
2023/10/31 07:36:13;;;;;;;21.60;12.20;;;;;;;13.47;64.25;99464.66;105787;1259;72962;-77
2023/10/31 07:38:40;;;;;;;18.80;12.90;;;;;;;13.51;64.31;99467.76;105906;1258;59714;-77
2023/10/31 07:41:08;;;;;;;22.80;12.60;;;;;;;13.53;64.39;99463.58;107147;1255;59492;-77
2023/10/31 07:43:35;;;;;;;20.30;12.20;;;;;;;13.58;64.33;99463.63;107009;1259;73635;-81
2023/10/31 07:46:05;;;;;;;26.80;12.20;;;;;;;13.64;64.16;99462.35;106047;1257;72314;-78
2023/10/31 07:48:33;;;;;;;19.80;12.80;;;;;;;13.71;63.90;99470.61;105697;1260;73633;-78
2023/10/31 07:51:00;;;;;;;19.20;11.70;;;;;;;13.78;63.88;99471.89;105911;1257;59551;-78
2023/10/31 07:53:28;;;;;;;22.70;12.90;;;;;;;13.85;63.70;99472.67;105766;1253;59602;-79
2023/10/31 07:55:55;;;;;;;18.60;11.80;;;;;;;13.95;63.57;99473.20;105689;1256;73432;-79
2023/10/31 07:58:23;;;;;;;18.30;11.30;;;;;;;14.04;63.09;99467.30;105732;1257;70294;-80
2023/10/31 08:00:50;;;;;;;17.90;10.50;;;;;;;14.10;63.27;99466.41;105850;1255;73004;-78
2023/10/31 08:03:18;;;;;;;14.70;10.30;;;;;;;14.18;62.77;99475.23;105834;1254;60053;-79
2023/10/31 08:05:45;;;;;;;20.00;12.40;;;;;;;14.23;62.90;99468.23;105879;1259;61272;-78
2023/10/31 08:08:13;;;;;;;20.70;11.00;;;;;;;14.29;62.91;99467.89;105885;1258;71765;-79
2023/10/31 08:10:41;;;;;;;18.20;11.00;;;;;;;14.39;62.64;99458.51;105970;1254;70057;-77
2023/10/31 08:13:08;;;;;;;18.90;10.80;;;;;;;14.50;62.63;99460.58;105830;1256;72428;-80
2023/10/31 08:15:36;;;;;;;19.30;10.90;;;;;;;14.64;62.27;99453.33;105625;1259;59736;-80
2023/10/31 08:18:04;;;;;;;13.30;9.60;;;;;;;14.75;61.64;99445.95;105822;1257;60049;-80
2023/10/31 08:20:33;;;;;;;20.10;10.30;;;;;;;14.81;61.73;99443.70;105741;1256;71846;-80
2023/10/31 08:23:01;;;;;;;16.40;10.90;;;;;;;14.87;61.68;99433.50;105739;1257;71416;-79
2023/10/31 08:25:29;;;;;;;18.40;10.30;;;;;;;14.94;61.48;99430.17;105944;1256;74967;-79
2023/10/31 08:27:57;;;;;;;18.70;10.60;;;;;;;15.04;61.18;99431.71;106121;1254;62253;-80
2023/10/31 08:30:24;;;;;;;15.20;9.20;;;;;;;15.19;61.12;99427.16;106116;1253;60206;-81
2023/10/31 08:32:53;;;;;;;14.70;9.70;;;;;;;15.39;60.91;99427.23;106130;1259;73014;-77
2023/10/31 08:35:22;;;;;;;15.90;10.40;;;;;;;15.62;59.98;99431.36;106228;1257;71158;-79
2023/10/31 08:37:50;;;;;;;15.50;9.90;;;;;;;15.77;59.75;99426.57;106296;1259;71034;-81
2023/10/31 08:40:17;;;;;;;16.30;9.30;;;;;;;15.90;59.26;99430.02;106459;1254;60053;-80
2023/10/31 08:42:44;;;;;;;15.50;8.50;;;;;;;16.04;59.04;99426.55;106606;1259;59621;-80
2023/10/31 08:45:12;;;;;;;18.00;9.30;;;;;;;16.24;58.65;99430.23;106960;1258;73149;-79
2023/10/31 08:47:39;;;;;;;17.80;10.20;;;;;;;16.47;58.16;99424.71;106816;1257;69098;-80
2023/10/31 08:50:08;;;;;;;15.00;8.90;;;;;;;16.73;57.52;99420.70;106147;1259;72169;-78
2023/10/31 08:52:36;;;;;;;13.70;8.30;;;;;;;17.02;57.15;99411.80;108514;1256;62421;-80
2023/10/31 08:55:04;;;;;;;11.50;7.70;;;;;;;17.40;56.75;99404.39;107632;1258;60534;-81
2023/10/31 08:57:33;;;;;;;11.70;7.60;;;;;;;17.82;55.27;99394.92;106100;1259;74841;-79
2023/10/31 09:00:01;;;;;;;14.40;9.30;;;;;;;18.09;54.41;99376.39;105802;1260;69214;-81
2023/10/31 09:02:28;;;;;;;11.50;8.10;;;;;;;18.35;53.72;99375.13;105802;1256;74798;-77
2023/10/31 09:04:56;;;;;;;11.60;7.40;;;;;;;18.59;53.52;99362.02;105937;1254;60502;-80
2023/10/31 09:07:23;;;;;;;13.00;7.50;;;;;;;18.89;52.90;99353.51;106215;1257;60650;-78
2023/10/31 09:09:51;;;;;;;17.40;9.50;;;;;;;19.21;52.23;99353.89;106070;1262;76138;-77
2023/10/31 09:12:18;;;;;;;14.30;7.50;;;;;;;19.50;51.40;99356.58;106460;1257;70526;-77
2023/10/31 09:14:46;;;;;;;11.60;8.10;;;;;;;19.86;50.59;99359.78;106763;1264;71881;-78
2023/10/31 09:17:13;;;;;;;15.70;8.90;;;;;;;20.35;49.77;99354.16;106476;1259;61158;-77
2023/10/31 09:19:41;;;;;;;12.10;8.30;;;;;;;20.92;48.85;99356.79;106551;1259;60517;-78
2023/10/31 09:22:08;;;;;;;13.10;7.60;;;;;;;21.43;47.61;99348.02;106591;1259;74800;-79
2023/10/31 09:24:36;;;;;;;10.80;7.20;;;;;;;21.73;46.73;99341.34;106218;1258;72257;-77
2023/10/31 09:27:03;;;;;;;13.70;7.20;;;;;;;21.88;46.32;99342.11;106380;1254;73024;-78
2023/10/31 09:29:31;;;;;;;12.00;8.00;;;;;;;21.96;45.92;99331.23;106344;1254;62388;-74
2023/10/31 09:31:59;;;;;;;11.40;7.50;;;;;;;22.13;45.66;99325.40;106472;1254;60383;-76
2023/10/31 09:34:26;;;;;;;10.00;6.60;;;;;;;22.54;45.71;99317.55;106623;1258;72663;-76
2023/10/31 09:36:54;;;;;;;12.30;7.30;;;;;;;23.20;44.11;99316.34;106722;1254;68927;-78
2023/10/31 09:39:22;;;;;;;14.00;7.70;;;;;;;23.74;43.09;99313.00;107297;1257;72562;-77
2023/10/31 09:41:50;;;;;;;13.60;6.80;;;;;;;24.23;42.52;99310.13;106811;1261;61161;-78
2023/10/31 09:44:21;;;;;;;9.70;6.80;;;;;;;24.76;41.74;99304.48;107142;1253;60400;-77
2023/10/31 09:46:51;;;;;;;10.50;6.80;;;;;;;25.40;41.17;99295.91;107198;1253;76247;-78
2023/10/31 09:49:19;;;;;;;8.70;6.70;;;;;;;26.16;40.04;99293.23;107396;1252;72477;-77
2023/10/31 09:51:48;;;;;;;11.60;6.40;;;;;;;26.88;39.03;99285.67;107507;1255;71686;-78
2023/10/31 09:54:16;;;;;;;8.00;6.10;;;;;;;27.43;38.06;99280.66;108281;1254;59451;-81
2023/10/31 09:56:44;;;;;;;11.60;6.40;;;;;;;27.82;37.17;99277.67;108585;1257;61170;-78
2023/10/31 09:59:14;;;;;;;8.80;6.00;;;;;;;27.97;36.44;99275.85;107589;1252;72756;-76
2023/10/31 10:01:44;;;;;;;9.80;6.00;;;;;;;27.99;36.55;99268.77;107218;1255;69376;-76
2023/10/31 10:04:12;;;;;;;7.20;5.60;;;;;;;28.23;36.50;99268.09;107317;1256;71762;-76
2023/10/31 10:06:49;;;;;;;9.20;5.80;;;;;;;28.44;35.98;99262.20;107041;1253;61298;-76
2023/10/31 10:09:17;;;;;;;10.00;6.40;;;;;;;28.65;36.00;99264.43;106700;1255;61164;-77
2023/10/31 10:11:45;;;;;;;7.60;5.80;;;;;;;29.04;35.70;99263.75;106796;1258;74264;-77
2023/10/31 10:14:12;;;;;;;8.00;6.10;;;;;;;29.60;34.86;99262.98;106699;1259;70357;-79
2023/10/31 10:16:40;;;;;;;8.10;5.50;;;;;;;29.90;34.03;99256.93;107102;1258;73411;-76
2023/10/31 10:19:21;;;;;;;10.20;5.70;;;;;;;29.76;34.36;99258.38;107293;1254;61017;-77
2023/10/31 10:21:54;;;;;;;9.70;6.20;;;;;;;29.80;34.61;99263.18;107105;1257;60542;-75
2023/10/31 10:24:23;;;;;;;7.80;5.20;;;;;;;30.15;33.65;99263.88;106748;1256;72751;-78
2023/10/31 10:26:51;;;;;;;8.30;6.00;;;;;;;30.20;33.43;99252.89;107692;1253;70541;-81
2023/10/31 10:29:19;;;;;;;9.20;5.60;;;;;;;30.51;33.61;99251.46;108882;1253;73566;-80
2023/10/31 10:31:47;;;;;;;10.60;6.30;;;;;;;31.25;33.37;99257.70;108812;1253;59058;-83
2023/10/31 10:34:16;;;;;;;9.90;7.20;;;;;;;32.05;32.81;99254.09;109084;1253;60147;-82
2023/10/31 10:36:52;;;;;;;11.60;7.30;;;;;;;32.72;31.94;99246.05;109149;1253;74836;-84
2023/10/31 10:39:21;;;;;;;12.10;7.80;;;;;;;32.98;31.61;99243.77;109407;1254;68942;-82
2023/10/31 10:41:59;;;;;;;12.80;7.30;;;;;;;33.07;31.32;99243.77;109313;1254;73728;-80
2023/10/31 10:44:33;;;;;;;11.80;6.70;;;;;;;33.06;31.45;99243.55;109150;1253;61470;-82
2023/10/31 10:47:02;;;;;;;8.90;6.50;;;;;;;33.01;31.60;99246.88;108413;1260;59291;-79
2023/10/31 10:49:33;;;;;;;7.80;6.10;;;;;;;33.08;31.74;99239.17;108652;1254;72451;-79
2023/10/31 10:52:14;;;;;;;10.80;6.50;;;;;;;33.30;31.52;99238.51;108383;1253;71922;-81
2023/10/31 10:55:01;;;;;;;7.70;6.70;;;;;;;33.61;31.33;99227.98;108423;1254;73805;-82
2023/10/31 10:57:32;;;;;;;10.90;5.60;;;;;;;34.04;30.79;99225.89;108325;1254;60368;-80
2023/10/31 11:00:12;;;;;;;9.50;6.00;;;;;;;34.19;30.69;99221.22;108621;1253;58813;-80
2023/10/31 11:02:43;;;;;;;9.00;5.90;;;;;;;34.09;30.66;99220.73;109079;1254;73167;-82
2023/10/31 11:05:11;;;;;;;9.40;6.10;;;;;;;34.03;30.84;99216.76;109077;1253;68594;-81
2023/10/31 11:07:39;;;;;;;11.00;5.80;;;;;;;34.00;30.82;99213.48;107965;1254;73597;-81
2023/10/31 11:10:08;;;;;;;8.50;5.60;;;;;;;34.14;30.76;99206.43;108192;1254;58246;-79
2023/10/31 11:12:36;;;;;;;9.90;5.80;;;;;;;34.29;30.60;99207.61;108125;1259;59091;-79
2023/10/31 11:15:04;;;;;;;7.00;5.10;;;;;;;34.35;30.55;99205.80;108100;1254;74992;-77
2023/10/31 11:17:34;;;;;;;9.30;5.70;;;;;;;34.24;30.21;99206.48;108044;1254;70754;-78